sensor_id;sensor_type;location;lat;lon;timestamp;P1;durP1;ratioP1;P2;durP2;ratioP2
5742;SDS011;2896;53.500;10.020;2023-02-28T00:00:36;9.03;;;4.80;;
5742;SDS011;2896;53.500;10.020;2023-02-28T00:03:03;7.50;;;4.07;;
5742;SDS011;2896;53.500;10.020;2023-02-28T00:05:29;5.00;;;4.00;;
5742;SDS011;2896;53.500;10.020;2023-02-28T00:07:56;7.23;;;4.47;;
5742;SDS011;2896;53.500;10.020;2023-02-28T00:10:24;4.10;;;3.80;;
5742;SDS011;2896;53.500;10.020;2023-02-28T00:12:54;6.10;;;3.90;;
5742;SDS011;2896;53.500;10.020;2023-02-28T00:15:24;6.37;;;4.30;;
5742;SDS011;2896;53.500;10.020;2023-02-28T00:17:51;4.70;;;4.20;;
5742;SDS011;2896;53.500;10.020;2023-02-28T00:20:18;6.23;;;4.70;;
5742;SDS011;2896;53.500;10.020;2023-02-28T00:22:46;5.60;;;4.53;;
5742;SDS011;2896;53.500;10.020;2023-02-28T00:25:15;6.90;;;4.57;;
5742;SDS011;2896;53.500;10.020;2023-02-28T00:27:43;4.93;;;3.70;;
5742;SDS011;2896;53.500;10.020;2023-02-28T00:30:12;4.00;;;3.70;;
5742;SDS011;2896;53.500;10.020;2023-02-28T00:32:40;3.97;;;3.67;;
5742;SDS011;2896;53.500;10.020;2023-02-28T00:35:08;4.67;;;4.27;;
5742;SDS011;2896;53.500;10.020;2023-02-28T00:37:36;5.03;;;4.63;;
5742;SDS011;2896;53.500;10.020;2023-02-28T00:40:03;7.00;;;4.60;;
5742;SDS011;2896;53.500;10.020;2023-02-28T00:42:31;7.17;;;4.30;;
5742;SDS011;2896;53.500;10.020;2023-02-28T00:44:58;5.90;;;4.43;;
5742;SDS011;2896;53.500;10.020;2023-02-28T00:47:26;5.00;;;4.60;;
5742;SDS011;2896;53.500;10.020;2023-02-28T00:49:52;6.13;;;4.43;;
5742;SDS011;2896;53.500;10.020;2023-02-28T00:52:19;4.50;;;4.10;;
5742;SDS011;2896;53.500;10.020;2023-02-28T00:54:46;7.73;;;4.60;;
5742;SDS011;2896;53.500;10.020;2023-02-28T00:57:13;4.63;;;4.23;;
5742;SDS011;2896;53.500;10.020;2023-02-28T00:59:39;10.90;;;5.10;;
5742;SDS011;2896;53.500;10.020;2023-02-28T01:02:06;5.23;;;4.67;;
5742;SDS011;2896;53.500;10.020;2023-02-28T01:04:35;6.40;;;4.70;;
5742;SDS011;2896;53.500;10.020;2023-02-28T01:07:01;7.43;;;4.93;;
5742;SDS011;2896;53.500;10.020;2023-02-28T01:09:28;8.67;;;4.67;;
5742;SDS011;2896;53.500;10.020;2023-02-28T01:11:55;5.00;;;4.50;;
5742;SDS011;2896;53.500;10.020;2023-02-28T01:14:22;6.53;;;4.67;;
5742;SDS011;2896;53.500;10.020;2023-02-28T01:16:48;8.33;;;4.90;;
5742;SDS011;2896;53.500;10.020;2023-02-28T01:19:16;7.60;;;4.60;;
5742;SDS011;2896;53.500;10.020;2023-02-28T01:21:44;5.23;;;4.80;;
5742;SDS011;2896;53.500;10.020;2023-02-28T01:24:11;8.83;;;5.10;;
5742;SDS011;2896;53.500;10.020;2023-02-28T01:26:37;7.70;;;5.30;;
5742;SDS011;2896;53.500;10.020;2023-02-28T01:29:04;6.73;;;4.83;;
5742;SDS011;2896;53.500;10.020;2023-02-28T01:31:30;5.37;;;4.83;;
5742;SDS011;2896;53.500;10.020;2023-02-28T01:33:57;7.67;;;5.07;;
5742;SDS011;2896;53.500;10.020;2023-02-28T01:36:25;6.03;;;5.43;;
5742;SDS011;2896;53.500;10.020;2023-02-28T01:38:53;9.13;;;5.17;;
5742;SDS011;2896;53.500;10.020;2023-02-28T01:41:20;8.40;;;5.57;;
5742;SDS011;2896;53.500;10.020;2023-02-28T01:43:53;7.90;;;5.97;;
5742;SDS011;2896;53.500;10.020;2023-02-28T01:46:29;7.27;;;5.60;;
5742;SDS011;2896;53.500;10.020;2023-02-28T01:48:58;10.30;;;5.77;;
5742;SDS011;2896;53.500;10.020;2023-02-28T01:51:28;5.67;;;5.17;;
5742;SDS011;2896;53.500;10.020;2023-02-28T01:54:00;8.90;;;5.77;;
5742;SDS011;2896;53.500;10.020;2023-02-28T01:56:32;6.90;;;5.43;;
5742;SDS011;2896;53.500;10.020;2023-02-28T01:59:01;9.00;;;5.70;;
5742;SDS011;2896;53.500;10.020;2023-02-28T02:01:28;8.00;;;5.80;;
5742;SDS011;2896;53.500;10.020;2023-02-28T02:03:57;8.43;;;6.27;;
5742;SDS011;2896;53.500;10.020;2023-02-28T02:06:27;9.30;;;6.00;;
5742;SDS011;2896;53.500;10.020;2023-02-28T02:08:58;10.13;;;6.00;;
5742;SDS011;2896;53.500;10.020;2023-02-28T02:11:25;7.70;;;6.77;;
5742;SDS011;2896;53.500;10.020;2023-02-28T02:14:12;7.50;;;5.77;;
5742;SDS011;2896;53.500;10.020;2023-02-28T02:16:59;8.77;;;5.40;;
5742;SDS011;2896;53.500;10.020;2023-02-28T02:19:41;7.97;;;5.80;;
5742;SDS011;2896;53.500;10.020;2023-02-28T02:22:21;8.13;;;5.23;;
5742;SDS011;2896;53.500;10.020;2023-02-28T02:25:09;6.50;;;5.83;;
5742;SDS011;2896;53.500;10.020;2023-02-28T02:28:04;17.97;;;6.07;;
5742;SDS011;2896;53.500;10.020;2023-02-28T02:30:58;10.00;;;6.13;;
5742;SDS011;2896;53.500;10.020;2023-02-28T02:36:47;9.57;;;6.67;;
5742;SDS011;2896;53.500;10.020;2023-02-28T02:39:17;7.73;;;6.03;;
5742;SDS011;2896;53.500;10.020;2023-02-28T02:41:49;9.10;;;5.40;;
5742;SDS011;2896;53.500;10.020;2023-02-28T02:44:20;6.33;;;5.73;;
5742;SDS011;2896;53.500;10.020;2023-02-28T02:46:51;5.97;;;5.13;;
5742;SDS011;2896;53.500;10.020;2023-02-28T02:49:21;7.43;;;5.30;;
5742;SDS011;2896;53.500;10.020;2023-02-28T02:51:53;7.90;;;5.80;;
5742;SDS011;2896;53.500;10.020;2023-02-28T02:54:22;8.30;;;6.03;;
5742;SDS011;2896;53.500;10.020;2023-02-28T02:56:53;8.73;;;6.00;;
5742;SDS011;2896;53.500;10.020;2023-02-28T02:59:23;8.10;;;5.80;;
5742;SDS011;2896;53.500;10.020;2023-02-28T03:01:52;8.80;;;5.37;;
5742;SDS011;2896;53.500;10.020;2023-02-28T03:04:22;7.83;;;5.73;;
5742;SDS011;2896;53.500;10.020;2023-02-28T03:06:51;7.63;;;5.70;;
5742;SDS011;2896;53.500;10.020;2023-02-28T03:09:20;6.10;;;5.23;;
5742;SDS011;2896;53.500;10.020;2023-02-28T03:11:46;6.27;;;5.50;;
5742;SDS011;2896;53.500;10.020;2023-02-28T03:14:24;10.00;;;5.60;;
5742;SDS011;2896;53.500;10.020;2023-02-28T03:17:03;7.67;;;5.57;;
5742;SDS011;2896;53.500;10.020;2023-02-28T03:19:57;7.50;;;5.97;;
5742;SDS011;2896;53.500;10.020;2023-02-28T03:22:38;10.53;;;6.50;;
5742;SDS011;2896;53.500;10.020;2023-02-28T03:25:16;11.63;;;5.97;;
5742;SDS011;2896;53.500;10.020;2023-02-28T03:27:47;6.40;;;5.80;;
5742;SDS011;2896;53.500;10.020;2023-02-28T03:30:22;10.60;;;5.90;;
5742;SDS011;2896;53.500;10.020;2023-02-28T03:32:53;8.67;;;5.63;;
5742;SDS011;2896;53.500;10.020;2023-02-28T03:35:23;8.27;;;6.90;;
5742;SDS011;2896;53.500;10.020;2023-02-28T03:37:54;9.70;;;6.70;;
5742;SDS011;2896;53.500;10.020;2023-02-28T03:40:27;10.50;;;6.67;;
5742;SDS011;2896;53.500;10.020;2023-02-28T03:42:59;12.93;;;6.97;;
5742;SDS011;2896;53.500;10.020;2023-02-28T03:45:38;10.53;;;7.60;;
5742;SDS011;2896;53.500;10.020;2023-02-28T03:48:08;9.00;;;7.20;;
5742;SDS011;2896;53.500;10.020;2023-02-28T03:50:40;9.30;;;6.57;;
5742;SDS011;2896;53.500;10.020;2023-02-28T03:53:10;10.07;;;6.50;;
5742;SDS011;2896;53.500;10.020;2023-02-28T03:55:40;9.37;;;5.93;;
5742;SDS011;2896;53.500;10.020;2023-02-28T03:58:11;9.93;;;6.20;;
5742;SDS011;2896;53.500;10.020;2023-02-28T04:00:46;10.63;;;6.40;;
5742;SDS011;2896;53.500;10.020;2023-02-28T04:03:15;12.30;;;7.00;;
5742;SDS011;2896;53.500;10.020;2023-02-28T04:05:46;18.03;;;7.87;;
5742;SDS011;2896;53.500;10.020;2023-02-28T04:08:17;7.60;;;5.90;;
5742;SDS011;2896;53.500;10.020;2023-02-28T04:10:45;14.27;;;7.60;;
5742;SDS011;2896;53.500;10.020;2023-02-28T04:13:16;10.77;;;6.40;;
5742;SDS011;2896;53.500;10.020;2023-02-28T04:15:43;7.80;;;6.33;;
5742;SDS011;2896;53.500;10.020;2023-02-28T04:18:09;7.10;;;6.40;;
5742;SDS011;2896;53.500;10.020;2023-02-28T04:20:36;11.80;;;7.30;;
5742;SDS011;2896;53.500;10.020;2023-02-28T04:23:03;8.93;;;6.80;;
5742;SDS011;2896;53.500;10.020;2023-02-28T04:25:31;11.30;;;6.50;;
5742;SDS011;2896;53.500;10.020;2023-02-28T04:27:58;8.00;;;6.77;;
5742;SDS011;2896;53.500;10.020;2023-02-28T04:30:25;6.73;;;6.13;;
5742;SDS011;2896;53.500;10.020;2023-02-28T04:32:51;13.10;;;6.57;;
5742;SDS011;2896;53.500;10.020;2023-02-28T04:35:18;9.70;;;6.80;;
5742;SDS011;2896;53.500;10.020;2023-02-28T04:37:44;10.73;;;7.60;;
5742;SDS011;2896;53.500;10.020;2023-02-28T04:40:11;14.27;;;8.00;;
5742;SDS011;2896;53.500;10.020;2023-02-28T04:42:39;13.03;;;7.57;;
5742;SDS011;2896;53.500;10.020;2023-02-28T04:45:06;14.63;;;7.67;;
5742;SDS011;2896;53.500;10.020;2023-02-28T04:47:35;10.67;;;7.37;;
5742;SDS011;2896;53.500;10.020;2023-02-28T04:50:01;13.60;;;8.07;;
5742;SDS011;2896;53.500;10.020;2023-02-28T04:52:29;11.30;;;7.10;;
5742;SDS011;2896;53.500;10.020;2023-02-28T04:54:55;9.80;;;8.13;;
5742;SDS011;2896;53.500;10.020;2023-02-28T04:57:22;11.20;;;7.90;;
5742;SDS011;2896;53.500;10.020;2023-02-28T04:59:50;10.53;;;8.10;;
5742;SDS011;2896;53.500;10.020;2023-02-28T05:02:16;11.53;;;7.77;;
5742;SDS011;2896;53.500;10.020;2023-02-28T05:04:43;8.87;;;7.60;;
5742;SDS011;2896;53.500;10.020;2023-02-28T05:07:10;11.40;;;8.27;;
5742;SDS011;2896;53.500;10.020;2023-02-28T05:09:36;14.23;;;8.60;;
5742;SDS011;2896;53.500;10.020;2023-02-28T05:12:03;12.60;;;8.60;;
5742;SDS011;2896;53.500;10.020;2023-02-28T05:14:29;12.27;;;8.30;;
5742;SDS011;2896;53.500;10.020;2023-02-28T05:16:57;12.47;;;8.17;;
5742;SDS011;2896;53.500;10.020;2023-02-28T05:19:24;12.00;;;7.80;;
5742;SDS011;2896;53.500;10.020;2023-02-28T05:21:51;12.20;;;8.70;;
5742;SDS011;2896;53.500;10.020;2023-02-28T05:24:19;19.47;;;11.00;;
5742;SDS011;2896;53.500;10.020;2023-02-28T05:26:48;16.50;;;10.03;;
5742;SDS011;2896;53.500;10.020;2023-02-28T05:29:16;14.90;;;9.60;;
5742;SDS011;2896;53.500;10.020;2023-02-28T05:31:43;15.07;;;9.40;;
5742;SDS011;2896;53.500;10.020;2023-02-28T05:34:11;13.93;;;9.83;;
5742;SDS011;2896;53.500;10.020;2023-02-28T05:36:37;13.87;;;8.23;;
5742;SDS011;2896;53.500;10.020;2023-02-28T05:39:04;14.80;;;9.73;;
5742;SDS011;2896;53.500;10.020;2023-02-28T05:41:32;11.57;;;8.53;;
5742;SDS011;2896;53.500;10.020;2023-02-28T05:43:59;11.77;;;8.37;;
5742;SDS011;2896;53.500;10.020;2023-02-28T05:46:26;11.03;;;8.30;;
5742;SDS011;2896;53.500;10.020;2023-02-28T05:48:52;10.60;;;7.70;;
5742;SDS011;2896;53.500;10.020;2023-02-28T05:51:22;12.33;;;8.57;;
5742;SDS011;2896;53.500;10.020;2023-02-28T05:53:48;9.63;;;8.27;;
5742;SDS011;2896;53.500;10.020;2023-02-28T05:56:15;14.30;;;9.10;;
5742;SDS011;2896;53.500;10.020;2023-02-28T05:58:41;12.10;;;9.30;;
5742;SDS011;2896;53.500;10.020;2023-02-28T06:01:22;9.03;;;8.03;;
5742;SDS011;2896;53.500;10.020;2023-02-28T06:03:50;12.47;;;8.90;;
5742;SDS011;2896;53.500;10.020;2023-02-28T06:06:17;16.33;;;9.00;;
5742;SDS011;2896;53.500;10.020;2023-02-28T06:08:45;11.30;;;8.63;;
5742;SDS011;2896;53.500;10.020;2023-02-28T06:11:11;11.70;;;8.90;;
5742;SDS011;2896;53.500;10.020;2023-02-28T06:13:38;12.13;;;9.00;;
5742;SDS011;2896;53.500;10.020;2023-02-28T06:16:05;17.90;;;10.00;;
5742;SDS011;2896;53.500;10.020;2023-02-28T06:18:32;12.83;;;9.50;;
5742;SDS011;2896;53.500;10.020;2023-02-28T06:20:59;13.63;;;9.80;;
5742;SDS011;2896;53.500;10.020;2023-02-28T06:23:27;15.17;;;9.53;;
5742;SDS011;2896;53.500;10.020;2023-02-28T06:25:55;16.60;;;10.43;;
5742;SDS011;2896;53.500;10.020;2023-02-28T06:28:23;12.73;;;9.63;;
5742;SDS011;2896;53.500;10.020;2023-02-28T06:30:50;15.40;;;10.37;;
5742;SDS011;2896;53.500;10.020;2023-02-28T06:33:16;14.10;;;10.93;;
5742;SDS011;2896;53.500;10.020;2023-02-28T06:35:43;16.03;;;11.60;;
5742;SDS011;2896;53.500;10.020;2023-02-28T06:38:10;15.30;;;10.27;;
5742;SDS011;2896;53.500;10.020;2023-02-28T06:40:37;13.10;;;9.50;;
5742;SDS011;2896;53.500;10.020;2023-02-28T06:43:05;15.83;;;11.53;;
5742;SDS011;2896;53.500;10.020;2023-02-28T06:45:32;17.83;;;12.40;;
5742;SDS011;2896;53.500;10.020;2023-02-28T06:47:58;14.50;;;11.50;;
5742;SDS011;2896;53.500;10.020;2023-02-28T06:50:25;16.67;;;11.10;;
5742;SDS011;2896;53.500;10.020;2023-02-28T06:52:53;13.33;;;10.90;;
5742;SDS011;2896;53.500;10.020;2023-02-28T06:55:20;14.70;;;11.63;;
5742;SDS011;2896;53.500;10.020;2023-02-28T06:57:47;16.30;;;12.63;;
5742;SDS011;2896;53.500;10.020;2023-02-28T07:00:17;18.10;;;12.00;;
5742;SDS011;2896;53.500;10.020;2023-02-28T07:02:44;11.77;;;9.57;;
5742;SDS011;2896;53.500;10.020;2023-02-28T07:05:10;15.67;;;11.90;;
5742;SDS011;2896;53.500;10.020;2023-02-28T07:07:37;23.67;;;15.17;;
5742;SDS011;2896;53.500;10.020;2023-02-28T07:10:09;17.33;;;12.97;;
5742;SDS011;2896;53.500;10.020;2023-02-28T07:12:36;31.27;;;15.40;;
5742;SDS011;2896;53.500;10.020;2023-02-28T07:15:03;19.70;;;12.60;;
5742;SDS011;2896;53.500;10.020;2023-02-28T07:17:33;18.43;;;11.87;;
5742;SDS011;2896;53.500;10.020;2023-02-28T07:19:59;20.70;;;13.83;;
5742;SDS011;2896;53.500;10.020;2023-02-28T07:22:26;23.10;;;11.83;;
5742;SDS011;2896;53.500;10.020;2023-02-28T07:24:53;17.30;;;11.67;;
5742;SDS011;2896;53.500;10.020;2023-02-28T07:27:20;17.03;;;9.60;;
5742;SDS011;2896;53.500;10.020;2023-02-28T07:29:50;18.97;;;9.40;;
5742;SDS011;2896;53.500;10.020;2023-02-28T07:32:17;13.80;;;9.20;;
5742;SDS011;2896;53.500;10.020;2023-02-28T07:34:45;14.10;;;9.80;;
5742;SDS011;2896;53.500;10.020;2023-02-28T07:37:12;16.87;;;9.23;;
5742;SDS011;2896;53.500;10.020;2023-02-28T07:39:39;11.30;;;8.20;;
5742;SDS011;2896;53.500;10.020;2023-02-28T07:42:07;13.87;;;9.17;;
5742;SDS011;2896;53.500;10.020;2023-02-28T07:44:35;13.60;;;9.57;;
5742;SDS011;2896;53.500;10.020;2023-02-28T07:47:05;13.07;;;8.80;;
5742;SDS011;2896;53.500;10.020;2023-02-28T07:49:32;12.57;;;8.40;;
5742;SDS011;2896;53.500;10.020;2023-02-28T07:52:00;11.13;;;8.17;;
5742;SDS011;2896;53.500;10.020;2023-02-28T07:54:26;9.93;;;8.17;;
5742;SDS011;2896;53.500;10.020;2023-02-28T07:56:53;11.40;;;8.83;;
5742;SDS011;2896;53.500;10.020;2023-02-28T07:59:20;10.43;;;7.93;;
5742;SDS011;2896;53.500;10.020;2023-02-28T08:01:46;18.87;;;8.03;;
5742;SDS011;2896;53.500;10.020;2023-02-28T08:04:15;9.57;;;7.53;;
5742;SDS011;2896;53.500;10.020;2023-02-28T08:06:41;9.17;;;7.47;;
5742;SDS011;2896;53.500;10.020;2023-02-28T08:09:09;10.30;;;7.17;;
5742;SDS011;2896;53.500;10.020;2023-02-28T08:11:36;23.50;;;7.73;;
5742;SDS011;2896;53.500;10.020;2023-02-28T08:14:03;12.77;;;7.37;;
5742;SDS011;2896;53.500;10.020;2023-02-28T08:16:29;8.77;;;7.37;;
5742;SDS011;2896;53.500;10.020;2023-02-28T08:18:56;8.67;;;7.27;;
5742;SDS011;2896;53.500;10.020;2023-02-28T08:21:22;17.20;;;7.37;;
5742;SDS011;2896;53.500;10.020;2023-02-28T08:23:50;13.70;;;6.20;;
5742;SDS011;2896;53.500;10.020;2023-02-28T08:26:18;8.37;;;6.97;;
5742;SDS011;2896;53.500;10.020;2023-02-28T08:28:45;8.50;;;6.10;;
5742;SDS011;2896;53.500;10.020;2023-02-28T08:31:13;13.60;;;6.93;;
5742;SDS011;2896;53.500;10.020;2023-02-28T08:33:41;8.30;;;6.67;;
5742;SDS011;2896;53.500;10.020;2023-02-28T08:36:09;9.00;;;6.33;;
5742;SDS011;2896;53.500;10.020;2023-02-28T08:38:37;7.00;;;5.80;;
5742;SDS011;2896;53.500;10.020;2023-02-28T08:41:05;8.23;;;5.63;;
5742;SDS011;2896;53.500;10.020;2023-02-28T08:43:35;9.30;;;6.20;;
5742;SDS011;2896;53.500;10.020;2023-02-28T08:46:02;10.27;;;6.40;;
5742;SDS011;2896;53.500;10.020;2023-02-28T08:48:29;13.67;;;7.17;;
5742;SDS011;2896;53.500;10.020;2023-02-28T08:50:57;7.43;;;5.53;;
5742;SDS011;2896;53.500;10.020;2023-02-28T08:53:25;6.20;;;5.07;;
5742;SDS011;2896;53.500;10.020;2023-02-28T08:55:56;9.27;;;5.23;;
5742;SDS011;2896;53.500;10.020;2023-02-28T08:58:23;5.03;;;4.60;;
5742;SDS011;2896;53.500;10.020;2023-02-28T09:00:51;8.30;;;4.47;;
5742;SDS011;2896;53.500;10.020;2023-02-28T09:03:19;5.40;;;4.30;;
5742;SDS011;2896;53.500;10.020;2023-02-28T09:05:55;5.33;;;4.63;;
5742;SDS011;2896;53.500;10.020;2023-02-28T09:08:23;8.20;;;5.33;;
5742;SDS011;2896;53.500;10.020;2023-02-28T09:10:50;5.00;;;4.60;;
5742;SDS011;2896;53.500;10.020;2023-02-28T09:13:18;8.73;;;4.53;;
5742;SDS011;2896;53.500;10.020;2023-02-28T09:15:45;4.93;;;4.40;;
5742;SDS011;2896;53.500;10.020;2023-02-28T09:18:13;5.20;;;4.73;;
5742;SDS011;2896;53.500;10.020;2023-02-28T09:20:40;9.80;;;4.90;;
5742;SDS011;2896;53.500;10.020;2023-02-28T09:23:07;4.93;;;4.43;;
5742;SDS011;2896;53.500;10.020;2023-02-28T09:25:35;5.30;;;4.30;;
5742;SDS011;2896;53.500;10.020;2023-02-28T09:28:02;4.80;;;4.47;;
5742;SDS011;2896;53.500;10.020;2023-02-28T09:30:30;4.53;;;4.13;;
5742;SDS011;2896;53.500;10.020;2023-02-28T09:32:57;5.10;;;4.23;;
5742;SDS011;2896;53.500;10.020;2023-02-28T09:35:25;5.60;;;4.10;;
5742;SDS011;2896;53.500;10.020;2023-02-28T09:37:52;4.53;;;4.13;;
5742;SDS011;2896;53.500;10.020;2023-02-28T09:40:19;4.43;;;4.13;;
5742;SDS011;2896;53.500;10.020;2023-02-28T09:42:49;4.33;;;3.93;;
5742;SDS011;2896;53.500;10.020;2023-02-28T09:45:19;8.07;;;4.50;;
5742;SDS011;2896;53.500;10.020;2023-02-28T09:47:50;3.97;;;3.53;;
5742;SDS011;2896;53.500;10.020;2023-02-28T09:50:22;6.57;;;4.10;;
5742;SDS011;2896;53.500;10.020;2023-02-28T09:53:00;4.07;;;3.70;;
5742;SDS011;2896;53.500;10.020;2023-02-28T09:55:30;4.10;;;3.80;;
5742;SDS011;2896;53.500;10.020;2023-02-28T09:58:03;5.90;;;3.30;;
5742;SDS011;2896;53.500;10.020;2023-02-28T10:00:32;8.93;;;3.50;;
5742;SDS011;2896;53.500;10.020;2023-02-28T10:03:17;5.03;;;3.43;;
5742;SDS011;2896;53.500;10.020;2023-02-28T10:05:56;2.50;;;2.40;;
5742;SDS011;2896;53.500;10.020;2023-02-28T10:08:30;6.93;;;2.50;;
5742;SDS011;2896;53.500;10.020;2023-02-28T10:11:06;2.80;;;2.60;;
5742;SDS011;2896;53.500;10.020;2023-02-28T10:13:36;2.93;;;2.10;;
5742;SDS011;2896;53.500;10.020;2023-02-28T10:16:08;1.83;;;1.83;;
5742;SDS011;2896;53.500;10.020;2023-02-28T10:18:40;3.83;;;1.90;;
5742;SDS011;2896;53.500;10.020;2023-02-28T10:21:15;4.30;;;2.30;;
5742;SDS011;2896;53.500;10.020;2023-02-28T10:23:46;4.57;;;3.07;;
5742;SDS011;2896;53.500;10.020;2023-02-28T10:26:15;4.13;;;2.00;;
5742;SDS011;2896;53.500;10.020;2023-02-28T10:28:43;2.90;;;2.07;;
5742;SDS011;2896;53.500;10.020;2023-02-28T10:31:11;1.93;;;1.83;;
5742;SDS011;2896;53.500;10.020;2023-02-28T10:33:42;4.10;;;3.90;;
5742;SDS011;2896;53.500;10.020;2023-02-28T10:36:10;2.33;;;2.13;;
5742;SDS011;2896;53.500;10.020;2023-02-28T10:38:42;6.93;;;2.70;;
5742;SDS011;2896;53.500;10.020;2023-02-28T10:41:10;3.27;;;2.37;;
5742;SDS011;2896;53.500;10.020;2023-02-28T10:43:39;3.13;;;2.43;;
5742;SDS011;2896;53.500;10.020;2023-02-28T10:46:11;2.60;;;2.40;;
5742;SDS011;2896;53.500;10.020;2023-02-28T10:48:57;2.33;;;2.10;;
5742;SDS011;2896;53.500;10.020;2023-02-28T10:51:29;1.93;;;1.83;;
5742;SDS011;2896;53.500;10.020;2023-02-28T10:54:02;3.40;;;2.30;;
5742;SDS011;2896;53.500;10.020;2023-02-28T10:56:29;1.90;;;1.80;;
5742;SDS011;2896;53.500;10.020;2023-02-28T10:58:57;2.17;;;1.97;;
5742;SDS011;2896;53.500;10.020;2023-02-28T11:01:34;2.60;;;2.07;;
5742;SDS011;2896;53.500;10.020;2023-02-28T11:04:02;3.10;;;2.10;;
5742;SDS011;2896;53.500;10.020;2023-02-28T11:06:31;2.10;;;2.00;;
5742;SDS011;2896;53.500;10.020;2023-02-28T11:08:59;1.87;;;1.70;;
5742;SDS011;2896;53.500;10.020;2023-02-28T11:11:30;3.33;;;1.63;;
5742;SDS011;2896;53.500;10.020;2023-02-28T11:14:14;4.00;;;2.40;;
5742;SDS011;2896;53.500;10.020;2023-02-28T11:16:45;1.80;;;1.70;;
5742;SDS011;2896;53.500;10.020;2023-02-28T11:19:16;2.33;;;1.93;;
5742;SDS011;2896;53.500;10.020;2023-02-28T11:21:50;2.07;;;1.90;;
5742;SDS011;2896;53.500;10.020;2023-02-28T11:24:22;1.87;;;1.77;;
5742;SDS011;2896;53.500;10.020;2023-02-28T11:26:51;1.97;;;1.77;;
5742;SDS011;2896;53.500;10.020;2023-02-28T11:29:19;3.53;;;1.97;;
5742;SDS011;2896;53.500;10.020;2023-02-28T11:32:01;2.20;;;1.80;;
5742;SDS011;2896;53.500;10.020;2023-02-28T11:34:29;3.00;;;2.47;;
5742;SDS011;2896;53.500;10.020;2023-02-28T11:36:58;4.33;;;2.10;;
5742;SDS011;2896;53.500;10.020;2023-02-28T11:39:29;2.27;;;1.67;;
5742;SDS011;2896;53.500;10.020;2023-02-28T11:42:00;4.60;;;2.30;;
5742;SDS011;2896;53.500;10.020;2023-02-28T11:44:40;3.73;;;2.33;;
5742;SDS011;2896;53.500;10.020;2023-02-28T11:47:21;1.70;;;1.60;;
5742;SDS011;2896;53.500;10.020;2023-02-28T11:49:57;1.80;;;1.70;;
5742;SDS011;2896;53.500;10.020;2023-02-28T11:52:36;1.80;;;1.63;;
5742;SDS011;2896;53.500;10.020;2023-02-28T11:55:12;2.97;;;1.43;;
5742;SDS011;2896;53.500;10.020;2023-02-28T11:57:47;1.60;;;1.50;;
5742;SDS011;2896;53.500;10.020;2023-02-28T12:00:27;1.90;;;1.80;;
5742;SDS011;2896;53.500;10.020;2023-02-28T12:03:16;2.40;;;1.70;;
5742;SDS011;2896;53.500;10.020;2023-02-28T12:05:52;1.23;;;1.23;;
5742;SDS011;2896;53.500;10.020;2023-02-28T12:08:35;4.60;;;1.40;;
5742;SDS011;2896;53.500;10.020;2023-02-28T12:11:14;2.83;;;1.93;;
5742;SDS011;2896;53.500;10.020;2023-02-28T12:13:56;1.63;;;1.63;;
5742;SDS011;2896;53.500;10.020;2023-02-28T12:16:41;1.50;;;1.40;;
5742;SDS011;2896;53.500;10.020;2023-02-28T12:19:22;2.97;;;1.70;;
5742;SDS011;2896;53.500;10.020;2023-02-28T12:22:01;3.63;;;2.00;;
5742;SDS011;2896;53.500;10.020;2023-02-28T12:24:42;1.50;;;1.50;;
5742;SDS011;2896;53.500;10.020;2023-02-28T12:27:21;1.90;;;1.57;;
5742;SDS011;2896;53.500;10.020;2023-02-28T12:29:51;3.70;;;1.87;;
5742;SDS011;2896;53.500;10.020;2023-02-28T12:32:23;5.17;;;1.90;;
5742;SDS011;2896;53.500;10.020;2023-02-28T12:34:55;2.03;;;1.93;;
5742;SDS011;2896;53.500;10.020;2023-02-28T12:37:27;1.70;;;1.60;;
5742;SDS011;2896;53.500;10.020;2023-02-28T12:40:01;2.07;;;1.97;;
5742;SDS011;2896;53.500;10.020;2023-02-28T12:42:33;3.50;;;1.80;;
5742;SDS011;2896;53.500;10.020;2023-02-28T12:45:05;1.60;;;1.50;;
5742;SDS011;2896;53.500;10.020;2023-02-28T12:47:37;4.57;;;2.33;;
5742;SDS011;2896;53.500;10.020;2023-02-28T12:50:05;1.83;;;1.73;;
5742;SDS011;2896;53.500;10.020;2023-02-28T12:52:37;2.07;;;1.97;;
5742;SDS011;2896;53.500;10.020;2023-02-28T12:55:13;1.70;;;1.60;;
5742;SDS011;2896;53.500;10.020;2023-02-28T12:57:46;1.50;;;1.40;;
5742;SDS011;2896;53.500;10.020;2023-02-28T13:00:22;1.60;;;1.60;;
5742;SDS011;2896;53.500;10.020;2023-02-28T13:06:04;1.93;;;1.83;;
5742;SDS011;2896;53.500;10.020;2023-02-28T13:08:43;2.63;;;1.87;;
5742;SDS011;2896;53.500;10.020;2023-02-28T13:11:28;2.30;;;1.80;;
5742;SDS011;2896;53.500;10.020;2023-02-28T13:14:00;2.57;;;1.80;;
5742;SDS011;2896;53.500;10.020;2023-02-28T13:19:17;3.93;;;1.97;;
5742;SDS011;2896;53.500;10.020;2023-02-28T13:21:46;2.13;;;1.73;;
5742;SDS011;2896;53.500;10.020;2023-02-28T13:24:36;2.17;;;2.07;;
5742;SDS011;2896;53.500;10.020;2023-02-28T13:29:57;3.87;;;2.30;;
5742;SDS011;2896;53.500;10.020;2023-02-28T13:32:29;1.87;;;1.77;;
5742;SDS011;2896;53.500;10.020;2023-02-28T13:35:12;7.13;;;2.23;;
5742;SDS011;2896;53.500;10.020;2023-02-28T13:37:54;6.03;;;2.67;;
5742;SDS011;2896;53.500;10.020;2023-02-28T13:40:41;2.10;;;2.00;;
5742;SDS011;2896;53.500;10.020;2023-02-28T13:43:12;2.80;;;1.97;;
5742;SDS011;2896;53.500;10.020;2023-02-28T13:48:36;2.97;;;2.10;;
5742;SDS011;2896;53.500;10.020;2023-02-28T13:54:06;1.70;;;1.60;;
5742;SDS011;2896;53.500;10.020;2023-02-28T13:56:48;4.47;;;2.17;;
5742;SDS011;2896;53.500;10.020;2023-02-28T13:59:23;4.40;;;2.20;;
5742;SDS011;2896;53.500;10.020;2023-02-28T14:02:01;2.10;;;2.00;;
5742;SDS011;2896;53.500;10.020;2023-02-28T14:07:38;2.70;;;2.47;;
5742;SDS011;2896;53.500;10.020;2023-02-28T14:10:15;1.87;;;1.87;;
5742;SDS011;2896;53.500;10.020;2023-02-28T14:13:00;2.03;;;1.93;;
5742;SDS011;2896;53.500;10.020;2023-02-28T14:15:38;2.20;;;2.00;;
5742;SDS011;2896;53.500;10.020;2023-02-28T14:18:21;3.70;;;2.67;;
5742;SDS011;2896;53.500;10.020;2023-02-28T14:20:52;1.97;;;1.87;;
5742;SDS011;2896;53.500;10.020;2023-02-28T14:23:33;2.20;;;2.10;;
5742;SDS011;2896;53.500;10.020;2023-02-28T14:26:13;5.10;;;2.40;;
5742;SDS011;2896;53.500;10.020;2023-02-28T14:29:01;1.83;;;1.73;;
5742;SDS011;2896;53.500;10.020;2023-02-28T14:31:45;2.90;;;1.53;;
5742;SDS011;2896;53.500;10.020;2023-02-28T14:34:31;2.90;;;2.20;;
5742;SDS011;2896;53.500;10.020;2023-02-28T14:37:03;1.90;;;1.80;;
5742;SDS011;2896;53.500;10.020;2023-02-28T14:39:32;2.07;;;1.97;;
5742;SDS011;2896;53.500;10.020;2023-02-28T14:42:01;1.97;;;1.80;;
5742;SDS011;2896;53.500;10.020;2023-02-28T14:44:29;2.10;;;2.00;;
5742;SDS011;2896;53.500;10.020;2023-02-28T14:46:59;1.90;;;1.80;;
5742;SDS011;2896;53.500;10.020;2023-02-28T14:49:32;2.67;;;2.07;;
5742;SDS011;2896;53.500;10.020;2023-02-28T14:52:02;3.27;;;2.23;;
5742;SDS011;2896;53.500;10.020;2023-02-28T14:54:34;3.33;;;2.20;;
5742;SDS011;2896;53.500;10.020;2023-02-28T14:57:01;2.63;;;2.10;;
5742;SDS011;2896;53.500;10.020;2023-02-28T14:59:29;4.40;;;1.93;;
5742;SDS011;2896;53.500;10.020;2023-02-28T15:04:52;2.23;;;1.93;;
5742;SDS011;2896;53.500;10.020;2023-02-28T15:07:20;7.97;;;2.70;;
5742;SDS011;2896;53.500;10.020;2023-02-28T15:10:06;2.50;;;2.30;;
5742;SDS011;2896;53.500;10.020;2023-02-28T15:12:34;9.53;;;2.80;;
5742;SDS011;2896;53.500;10.020;2023-02-28T15:15:01;4.20;;;2.67;;
5742;SDS011;2896;53.500;10.020;2023-02-28T15:17:29;5.50;;;1.97;;
5742;SDS011;2896;53.500;10.020;2023-02-28T15:19:56;2.10;;;1.60;;
5742;SDS011;2896;53.500;10.020;2023-02-28T15:22:25;1.90;;;1.80;;
5742;SDS011;2896;53.500;10.020;2023-02-28T15:24:57;19.83;;;2.10;;
5742;SDS011;2896;53.500;10.020;2023-02-28T15:27:25;4.53;;;2.00;;
5742;SDS011;2896;53.500;10.020;2023-02-28T15:29:57;2.10;;;2.00;;
5742;SDS011;2896;53.500;10.020;2023-02-28T15:32:28;1.97;;;1.90;;
5742;SDS011;2896;53.500;10.020;2023-02-28T15:34:57;2.50;;;2.00;;
5742;SDS011;2896;53.500;10.020;2023-02-28T15:37:30;3.63;;;2.03;;
5742;SDS011;2896;53.500;10.020;2023-02-28T15:40:07;7.50;;;2.03;;